Hlavní strana
METAR-TAF:

METAR-TAF

Letiště :

St. Moritz, Švýcarsko

zeměpisná šířka: 46-32-03N, zeměpisná délka: 9-53-03E, výška: 1707 m

Aktuální stav počasí

Zpráva byla vytvořena před 6 minutami, v 07:50 UTC
vítr z různých směrů 2 kt
Teplota 13°C
Vlhkost vzduchu 67%
Tlak 1025 hPa
Viditelnost 10 km a více
Žádná oblačnost pod 1500 m, nevyskytují se cumulonimby.

METAR: LSZS 260750Z VRB02KT CAVOK 13/07 Q1025 RMK E

Čas: 09:56 (07:56 UTC)


TAF: chybějící

Stav a předpovědi počasí z více než 4 000 letišť (zprávy METAR a TAF).

Červené a žluté tečky na mapě představují dostupné meteorologické stanice.

Když kurzor umístíte na tečku, zobrazí se název stanice.

Pak kliknutím zobrazíte stav a předpověď počasí.

Chcete-li změnit mapu, kliknutím na zelené tlačítko se znaménkem +mapu přiblížíte, kliknutím na zelené tlačítko se znaménkem – mapu oddálíte a kliknutím na zelené šipky přejdete na sousední mapy.


METAR-TAF: